createdAt,value
2022-10-22T00:01:44.253Z,7.13
2022-10-22T00:04:13.809Z,7.03
2022-10-22T00:06:45.091Z,7.05
2022-10-22T00:09:14.877Z,7.95
2022-10-22T00:11:45.466Z,6.97
2022-10-22T00:14:17.640Z,5.90
2022-10-22T00:16:47.243Z,6.00
2022-10-22T00:19:17.023Z,5.60
2022-10-22T00:21:46.600Z,5.55
2022-10-22T00:24:16.457Z,5.65
2022-10-22T00:26:46.074Z,5.18
2022-10-22T00:29:20.118Z,5.57
2022-10-22T00:31:50.083Z,5.10
2022-10-22T00:34:20.143Z,5.07
2022-10-22T00:36:50.182Z,5.25
2022-10-22T00:39:21.696Z,4.95
2022-10-22T00:41:52.065Z,5.47
2022-10-22T00:44:51.654Z,4.88
2022-10-22T00:47:26.689Z,4.93
2022-10-22T00:49:56.852Z,5.22
2022-10-22T00:52:26.466Z,5.22
2022-10-22T00:54:56.052Z,5.13
2022-10-22T00:57:25.764Z,5.43
2022-10-22T00:59:55.395Z,5.05
2022-10-22T01:02:27.769Z,5.45
2022-10-22T01:04:57.832Z,5.25
2022-10-22T01:07:27.712Z,5.20
2022-10-22T01:10:04.517Z,5.40
2022-10-22T01:12:43.256Z,5.43
2022-10-22T01:15:20.929Z,5.47
2022-10-22T01:17:58.866Z,5.13
2022-10-22T01:20:48.992Z,5.45
2022-10-22T01:23:54.228Z,4.97
2022-10-22T01:26:29.378Z,5.00
2022-10-22T01:29:06.787Z,5.50
2022-10-22T01:31:41.125Z,5.20
2022-10-22T01:34:11.294Z,5.25
2022-10-22T01:36:41.868Z,5.75
2022-10-22T01:39:11.667Z,5.20
2022-10-22T01:41:42.775Z,5.43
2022-10-22T01:44:31.173Z,5.38
2022-10-22T01:47:12.825Z,5.40
2022-10-22T01:49:58.056Z,5.28
2022-10-22T01:52:34.626Z,5.95
2022-10-22T01:55:12.975Z,5.88
2022-10-22T01:57:47.349Z,5.40
2022-10-22T02:00:20.590Z,5.22
2022-10-22T02:02:54.277Z,5.85
2022-10-22T02:05:26.049Z,5.65
2022-10-22T02:07:58.476Z,5.43
2022-10-22T02:10:28.328Z,5.28
2022-10-22T02:12:58.960Z,5.90
2022-10-22T02:15:32.688Z,6.18
2022-10-22T02:18:02.846Z,5.50
2022-10-22T02:20:34.938Z,6.25
2022-10-22T02:23:04.789Z,6.00
2022-10-22T02:25:37.764Z,6.20
2022-10-22T02:28:14.677Z,6.25
2022-10-22T02:30:49.625Z,6.28
2022-10-22T02:33:22.422Z,6.15
2022-10-22T02:35:52.665Z,6.40
2022-10-22T02:38:22.598Z,6.28
2022-10-22T02:40:52.289Z,6.40
2022-10-22T02:43:22.215Z,6.40
2022-10-22T02:45:54.723Z,6.25
2022-10-22T02:48:24.483Z,6.43
2022-10-22T02:50:54.034Z,6.63
2022-10-22T02:53:23.624Z,6.43
2022-10-22T02:55:53.163Z,6.82
2022-10-22T02:58:22.746Z,6.70
2022-10-22T03:00:54.974Z,7.15
2022-10-22T03:03:24.817Z,7.30
2022-10-22T03:05:54.367Z,7.00
2022-10-22T03:08:23.931Z,7.85
2022-10-22T03:10:53.485Z,7.72
2022-10-22T03:13:23.540Z,7.78
2022-10-22T03:15:55.906Z,8.20
2022-10-22T03:18:25.511Z,8.68
2022-10-22T03:21:04.042Z,8.45
2022-10-22T03:23:34.635Z,8.60
2022-10-22T03:26:04.240Z,8.65
2022-10-22T03:28:33.823Z,8.63
2022-10-22T03:31:06.000Z,21.63
2022-10-22T03:33:35.601Z,8.65
2022-10-22T03:36:05.282Z,9.02
2022-10-22T03:38:34.929Z,9.77
2022-10-22T03:41:04.529Z,10.43
2022-10-22T03:43:34.117Z,10.65
2022-10-22T03:46:06.494Z,10.65
2022-10-22T03:48:36.069Z,10.27
2022-10-22T03:51:05.678Z,10.23
2022-10-22T03:53:35.399Z,11.55
2022-10-22T03:56:05.192Z,11.05
2022-10-22T03:58:34.717Z,10.35
2022-10-22T04:01:10.667Z,11.02
2022-10-22T04:03:41.877Z,10.68
2022-10-22T04:06:12.774Z,10.77
2022-10-22T04:08:43.344Z,11.00
2022-10-22T04:11:13.533Z,10.30
2022-10-22T04:13:43.161Z,11.55
2022-10-22T04:16:16.901Z,11.30
2022-10-22T04:18:47.255Z,10.63
2022-10-22T04:21:18.598Z,10.93
2022-10-22T04:23:49.054Z,10.32
2022-10-22T04:26:19.743Z,10.38
2022-10-22T04:28:49.941Z,12.50
2022-10-22T04:31:23.719Z,9.98
2022-10-22T04:33:55.806Z,10.23
2022-10-22T04:36:26.261Z,9.90
2022-10-22T04:38:57.411Z,9.73
2022-10-22T04:41:29.696Z,10.23
2022-10-22T04:44:00.196Z,9.80
2022-10-22T04:46:34.799Z,9.98
2022-10-22T04:49:05.102Z,11.32
2022-10-22T04:51:35.487Z,9.50
2022-10-22T04:54:05.053Z,9.77
2022-10-22T04:56:35.210Z,9.35
2022-10-22T04:59:07.216Z,9.65
2022-10-22T05:01:43.000Z,9.15
2022-10-22T05:04:14.740Z,9.60
2022-10-22T05:06:44.939Z,9.45
2022-10-22T05:09:16.948Z,10.85
2022-10-22T05:11:48.791Z,10.32
2022-10-22T05:14:20.193Z,11.07
2022-10-22T05:16:52.881Z,11.77
2022-10-22T05:19:24.385Z,10.85
2022-10-22T05:21:54.296Z,10.68
2022-10-22T05:24:24.673Z,11.13
2022-10-22T05:26:54.774Z,11.43
2022-10-22T05:29:24.741Z,11.00
2022-10-22T05:31:57.173Z,12.13
2022-10-22T05:34:26.770Z,12.10
2022-10-22T05:36:56.359Z,11.88
2022-10-22T05:39:25.884Z,11.95
2022-10-22T05:41:55.473Z,11.52
2022-10-22T05:44:25.034Z,12.88
2022-10-22T05:46:57.223Z,12.07
2022-10-22T05:49:26.798Z,12.68
2022-10-22T05:51:56.364Z,24.80
2022-10-22T05:54:25.948Z,13.18
2022-10-22T05:56:55.690Z,12.38
2022-10-22T05:59:25.220Z,12.73
2022-10-22T06:01:57.409Z,13.38
2022-10-22T06:04:27.060Z,12.45
2022-10-22T06:06:56.919Z,12.52
2022-10-22T06:09:29.215Z,11.98
2022-10-22T06:11:59.335Z,12.32
2022-10-22T06:14:29.602Z,12.45
2022-10-22T06:17:02.404Z,12.55
2022-10-22T06:19:32.543Z,12.73
2022-10-22T06:22:02.083Z,14.38
2022-10-22T06:24:31.641Z,12.75
2022-10-22T06:27:01.244Z,13.35
2022-10-22T06:29:30.781Z,12.27
2022-10-22T06:32:02.950Z,12.43
2022-10-22T06:34:32.659Z,12.25
2022-10-22T06:37:02.277Z,12.32
2022-10-22T06:39:32.020Z,12.23
2022-10-22T06:42:01.602Z,9.82
2022-10-22T06:44:36.934Z,7.50
2022-10-22T06:47:09.098Z,6.88
2022-10-22T06:49:38.685Z,6.10
2022-10-22T06:52:08.456Z,5.70
2022-10-22T06:54:38.251Z,5.93
2022-10-22T06:57:07.934Z,5.18
2022-10-22T06:59:38.144Z,5.00
2022-10-22T07:02:11.700Z,4.78
2022-10-22T07:04:43.734Z,5.20
2022-10-22T07:07:14.973Z,4.93
2022-10-22T07:09:45.531Z,4.90
2022-10-22T07:12:15.080Z,4.70
2022-10-22T07:14:44.880Z,5.45
2022-10-22T07:17:17.084Z,4.80
2022-10-22T07:19:49.694Z,5.13
2022-10-22T07:22:20.968Z,4.90
2022-10-22T07:24:50.560Z,4.30
2022-10-22T07:27:20.122Z,4.97
2022-10-22T07:29:49.862Z,4.38
2022-10-22T07:32:23.872Z,3.70
2022-10-22T07:34:53.591Z,3.70
2022-10-22T07:37:23.607Z,3.53
2022-10-22T07:39:53.312Z,3.30
2022-10-22T07:42:22.908Z,3.50
2022-10-22T07:44:52.521Z,3.03
2022-10-22T07:47:24.697Z,2.92
2022-10-22T07:49:54.296Z,3.55
2022-10-22T07:52:23.904Z,2.92
2022-10-22T07:54:53.506Z,3.20
2022-10-22T07:57:23.126Z,3.10
2022-10-22T07:59:53.260Z,2.90
2022-10-22T08:02:25.485Z,3.05
2022-10-22T08:04:57.075Z,3.08
2022-10-22T08:10:16.569Z,3.20
2022-10-22T08:12:46.164Z,3.30
2022-10-22T08:15:15.790Z,3.50
2022-10-22T08:17:47.945Z,3.60
2022-10-22T08:20:17.679Z,3.70
2022-10-22T08:22:47.443Z,3.50
2022-10-22T08:25:18.262Z,4.22
2022-10-22T08:27:48.632Z,3.85
2022-10-22T08:30:18.785Z,5.25
2022-10-22T08:32:54.001Z,9.80
2022-10-22T08:35:23.925Z,3.70
2022-10-22T08:37:53.670Z,4.18
2022-10-22T08:40:26.769Z,3.97
2022-10-22T08:43:32.035Z,4.55
2022-10-22T08:46:12.980Z,6.13
2022-10-22T08:48:49.821Z,9.10
2022-10-22T08:51:21.087Z,5.20
2022-10-22T08:54:11.074Z,4.10
2022-10-22T08:56:41.170Z,3.90
2022-10-22T08:59:15.516Z,5.35
2022-10-22T09:01:48.773Z,3.80
2022-10-22T09:04:25.531Z,4.03
2022-10-22T09:06:56.448Z,3.80
2022-10-22T09:09:27.772Z,3.70
2022-10-22T09:12:00.261Z,4.03
2022-10-22T09:14:29.968Z,3.92
2022-10-22T09:17:13.490Z,3.40
2022-10-22T09:19:51.990Z,3.47
2022-10-22T09:22:28.982Z,3.65
2022-10-22T09:25:01.821Z,3.60
2022-10-22T09:27:33.251Z,3.28
2022-10-22T09:30:03.671Z,3.20
2022-10-22T09:32:35.859Z,2.70
2022-10-22T09:35:13.423Z,3.10
2022-10-22T09:37:51.768Z,3.35
2022-10-22T09:40:21.650Z,2.88
2022-10-22T09:42:51.660Z,2.60
2022-10-22T09:45:23.695Z,2.83
2022-10-22T09:48:02.208Z,2.70
2022-10-22T09:50:42.582Z,5.35
2022-10-22T09:53:23.531Z,3.42
2022-10-22T09:58:46.530Z,2.95
2022-10-22T10:01:21.729Z,3.00
2022-10-22T10:03:52.703Z,2.40
2022-10-22T10:06:25.901Z,2.47
2022-10-22T10:08:55.479Z,2.63
2022-10-22T10:11:31.806Z,2.50
2022-10-22T10:14:11.057Z,3.25
2022-10-22T10:16:46.812Z,2.70
2022-10-22T10:19:29.499Z,2.70
2022-10-22T10:22:08.634Z,2.70
2022-10-22T10:24:50.902Z,2.33
2022-10-22T10:27:27.946Z,2.70
2022-10-22T10:30:04.677Z,2.92
2022-10-22T10:32:46.983Z,2.50
2022-10-22T10:35:23.344Z,3.20
2022-10-22T10:38:09.879Z,2.30
2022-10-22T10:40:47.294Z,2.00
2022-10-22T10:43:21.653Z,1.98
2022-10-22T10:45:59.557Z,2.25
2022-10-22T10:48:48.695Z,2.35
2022-10-22T10:51:32.722Z,2.35
2022-10-22T10:54:15.296Z,2.03
2022-10-22T10:56:48.720Z,2.70
2022-10-22T10:59:22.232Z,6.38
2022-10-22T11:02:04.937Z,3.00
2022-10-22T11:05:10.201Z,2.92
2022-10-22T11:07:43.337Z,10.20
2022-10-22T11:10:22.657Z,5.45
2022-10-22T11:12:53.675Z,2.83
2022-10-22T11:15:29.669Z,3.80
2022-10-22T11:18:07.441Z,3.25
2022-10-22T11:20:46.268Z,2.25
2022-10-22T11:23:21.220Z,5.57
2022-10-22T11:25:53.822Z,3.58
2022-10-22T11:28:27.858Z,3.97
2022-10-22T11:31:02.823Z,3.22
2022-10-22T11:33:38.693Z,2.38
2022-10-22T11:36:09.751Z,2.20
2022-10-22T11:38:39.477Z,1.95
2022-10-22T11:41:14.853Z,2.20
2022-10-22T11:44:01.548Z,1.73
2022-10-22T11:46:43.569Z,2.10
2022-10-22T11:49:26.820Z,2.20
2022-10-22T11:52:25.464Z,2.08
2022-10-22T11:54:58.020Z,7.00
2022-10-22T11:57:40.240Z,2.70
2022-10-22T12:00:13.901Z,3.55
2022-10-22T12:02:46.542Z,2.58
2022-10-22T12:05:38.294Z,2.45
2022-10-22T12:08:24.004Z,2.15
2022-10-22T12:11:09.581Z,2.58
2022-10-22T12:14:04.689Z,2.10
2022-10-22T12:16:57.349Z,1.90
2022-10-22T12:19:30.238Z,2.38
2022-10-22T12:22:02.016Z,2.05
2022-10-22T12:24:35.491Z,2.45
2022-10-22T12:27:08.185Z,1.90
2022-10-22T12:29:40.834Z,2.72
2022-10-22T12:32:10.413Z,2.03
2022-10-22T12:37:38.843Z,2.38
2022-10-22T12:40:19.707Z,6.25
2022-10-22T12:42:56.670Z,3.95
2022-10-22T12:45:30.796Z,2.70
2022-10-22T12:48:01.982Z,2.00
2022-10-22T12:50:38.189Z,2.25
2022-10-22T12:53:08.759Z,1.67
2022-10-22T12:55:39.338Z,4.43
2022-10-22T12:58:09.193Z,4.20
2022-10-22T13:00:42.021Z,2.60
2022-10-22T13:03:20.759Z,2.05
2022-10-22T13:05:51.242Z,1.70
2022-10-22T13:10:56.225Z,1.92
2022-10-22T13:13:33.932Z,1.83
2022-10-22T13:16:20.610Z,2.13
2022-10-22T13:18:51.257Z,1.70
2022-10-22T13:21:32.354Z,1.88
2022-10-22T13:24:03.438Z,1.98
2022-10-22T13:26:35.390Z,2.03
2022-10-22T13:29:06.065Z,6.00
2022-10-22T13:31:38.270Z,2.30
2022-10-22T13:34:11.852Z,1.83
2022-10-22T13:36:43.601Z,2.13
2022-10-22T13:39:17.516Z,2.03
2022-10-22T13:44:16.482Z,2.42
2022-10-22T13:46:49.364Z,1.80
2022-10-22T13:49:22.545Z,2.10
2022-10-22T13:51:53.609Z,2.28
2022-10-22T13:54:25.704Z,2.20
2022-10-22T13:56:55.560Z,5.03
2022-10-22T13:59:25.123Z,2.15
2022-10-22T14:01:57.329Z,2.03
2022-10-22T14:04:26.937Z,1.88
2022-10-22T14:06:58.757Z,2.38
2022-10-22T14:09:31.224Z,1.63
2022-10-22T14:12:00.843Z,2.20
2022-10-22T14:14:30.404Z,2.35
2022-10-22T14:17:02.578Z,2.05
2022-10-22T14:19:32.994Z,1.95
2022-10-22T14:22:02.604Z,2.53
2022-10-22T14:24:32.160Z,3.13
2022-10-22T14:27:01.752Z,1.83
2022-10-22T14:29:31.300Z,2.85
2022-10-22T14:32:03.478Z,2.30
2022-10-22T14:34:33.052Z,2.50
2022-10-22T14:37:02.662Z,4.95
2022-10-22T14:39:32.192Z,2.67
2022-10-22T14:42:01.780Z,2.17
2022-10-22T14:44:31.378Z,2.80
2022-10-22T14:47:03.635Z,2.47
2022-10-22T14:49:33.217Z,1.90
2022-10-22T14:52:02.838Z,2.00
2022-10-22T14:54:33.224Z,2.10
2022-10-22T14:57:02.805Z,2.03
2022-10-22T14:59:32.787Z,2.42
2022-10-22T15:02:04.994Z,2.30
2022-10-22T15:04:34.555Z,2.55
2022-10-22T15:07:04.217Z,1.80
2022-10-22T15:09:34.129Z,2.30
2022-10-22T15:12:03.797Z,2.10
2022-10-22T15:14:33.519Z,2.30
2022-10-22T15:17:05.718Z,2.22
2022-10-22T15:19:35.447Z,2.10
2022-10-22T15:22:05.876Z,2.28
2022-10-22T15:24:35.524Z,2.08
2022-10-22T15:27:05.542Z,2.63
2022-10-22T15:29:35.591Z,2.20
2022-10-22T15:32:10.401Z,2.28
2022-10-22T15:34:41.705Z,2.30
2022-10-22T15:37:12.647Z,2.10
2022-10-22T15:39:43.013Z,2.90
2022-10-22T15:42:14.505Z,2.17
2022-10-22T15:44:44.531Z,2.30
2022-10-22T15:47:16.822Z,2.53
2022-10-22T15:49:46.401Z,5.60
2022-10-22T15:52:16.156Z,5.68
2022-10-22T15:54:45.737Z,4.25
2022-10-22T15:57:15.366Z,3.42
2022-10-22T15:59:44.953Z,2.85
2022-10-22T16:02:17.133Z,3.38
2022-10-22T16:04:46.700Z,2.85
2022-10-22T16:07:17.319Z,3.00
2022-10-22T16:09:48.421Z,3.30
2022-10-22T16:12:18.574Z,2.70
2022-10-22T16:14:48.166Z,2.95
2022-10-22T16:17:20.654Z,2.83
2022-10-22T16:19:50.597Z,2.90
2022-10-22T16:22:20.284Z,2.78
2022-10-22T16:24:50.101Z,2.60
2022-10-22T16:27:19.680Z,3.28
2022-10-22T16:29:49.238Z,3.40
2022-10-22T16:32:21.407Z,3.08
2022-10-22T16:34:50.941Z,3.40
2022-10-22T16:37:20.500Z,3.22
2022-10-22T16:39:50.254Z,3.20
2022-10-22T16:42:19.909Z,6.38
2022-10-22T16:44:49.457Z,3.30
2022-10-22T16:47:21.634Z,3.92
2022-10-22T16:49:51.165Z,3.17
2022-10-22T16:52:20.754Z,3.30
2022-10-22T16:54:50.360Z,3.50
2022-10-22T16:57:19.974Z,3.33
2022-10-22T16:59:50.407Z,3.33
2022-10-22T17:02:22.605Z,3.08
2022-10-22T17:04:52.149Z,3.50
2022-10-22T17:07:21.760Z,3.15
2022-10-22T17:09:51.320Z,3.00
2022-10-22T17:12:20.907Z,3.00
2022-10-22T17:14:51.156Z,3.28
2022-10-22T17:17:23.830Z,3.38
2022-10-22T17:19:53.535Z,3.38
2022-10-22T17:22:23.176Z,4.13
2022-10-22T17:25:09.887Z,4.43
2022-10-22T17:27:39.752Z,4.50
2022-10-22T17:30:13.348Z,6.43
2022-10-22T17:32:45.990Z,6.25
2022-10-22T17:35:17.872Z,5.75
2022-10-22T17:37:47.467Z,5.15
2022-10-22T17:40:17.279Z,4.47
2022-10-22T17:42:49.276Z,15.82
2022-10-22T17:45:19.049Z,10.25
2022-10-22T17:47:52.032Z,11.13
2022-10-22T17:50:21.690Z,14.13
2022-10-22T17:52:51.273Z,32.30
2022-10-22T17:55:20.886Z,18.02
2022-10-22T17:57:50.463Z,10.43
2022-10-22T18:00:21.376Z,4.85
2022-10-22T18:02:53.547Z,4.57
2022-10-22T18:05:23.085Z,6.85
2022-10-22T18:07:53.101Z,4.97
2022-10-22T18:10:22.640Z,5.25
2022-10-22T18:12:52.258Z,5.40
2022-10-22T18:15:21.795Z,4.45
2022-10-22T18:17:54.008Z,4.68
2022-10-22T18:20:23.548Z,4.80
2022-10-22T18:22:53.130Z,5.93
2022-10-22T18:25:22.797Z,6.88
2022-10-22T18:27:52.401Z,5.55
2022-10-22T18:30:22.067Z,6.00
2022-10-22T18:32:54.509Z,5.30
2022-10-22T18:35:24.449Z,5.28
2022-10-22T18:37:54.038Z,21.15
2022-10-22T18:40:23.642Z,18.83
2022-10-22T18:42:53.273Z,7.00
2022-10-22T18:45:22.858Z,5.28
2022-10-22T18:47:55.046Z,8.20
2022-10-22T18:50:24.691Z,7.75
2022-10-22T18:52:54.353Z,6.80
2022-10-22T18:55:23.898Z,6.50
2022-10-22T18:57:53.464Z,6.80
2022-10-22T19:00:23.389Z,7.50
2022-10-22T19:02:55.637Z,7.57
2022-10-22T19:05:25.347Z,5.80
2022-10-22T19:07:55.019Z,5.78
2022-10-22T19:10:24.682Z,5.68
2022-10-22T19:12:54.309Z,5.40
2022-10-22T19:15:23.902Z,4.90
2022-10-22T19:17:56.105Z,5.03
2022-10-22T19:20:25.679Z,4.43
2022-10-22T19:22:56.681Z,6.90
2022-10-22T19:25:26.890Z,7.28
2022-10-22T19:27:56.509Z,6.30
2022-10-22T19:30:26.081Z,6.45
2022-10-22T19:32:58.273Z,7.00
2022-10-22T19:35:27.839Z,8.15
2022-10-22T19:37:57.420Z,8.15
2022-10-22T19:40:28.442Z,8.25
2022-10-22T19:42:58.069Z,6.60
2022-10-22T19:45:27.662Z,5.82
2022-10-22T19:47:59.787Z,4.68
2022-10-22T19:50:29.422Z,4.93
2022-10-22T19:52:59.695Z,5.22
2022-10-22T19:55:29.453Z,5.40
2022-10-22T19:57:59.041Z,5.68
2022-10-22T20:00:29.433Z,5.20
2022-10-22T20:03:01.674Z,5.40
2022-10-22T20:05:31.284Z,6.15
2022-10-22T20:08:00.937Z,6.38
2022-10-22T20:10:30.501Z,7.03
2022-10-22T20:13:00.090Z,5.63
2022-10-22T20:15:29.741Z,4.40
2022-10-22T20:18:02.148Z,5.25
2022-10-22T20:20:31.737Z,5.25
2022-10-22T20:23:01.412Z,4.30
2022-10-22T20:25:31.133Z,4.45
2022-10-22T20:28:00.704Z,4.43
2022-10-22T20:30:30.938Z,4.20
2022-10-22T20:33:03.161Z,3.97
2022-10-22T20:35:32.712Z,4.30
2022-10-22T20:38:02.275Z,4.10
2022-10-22T20:40:32.303Z,4.38
2022-10-22T20:43:02.459Z,3.72
2022-10-22T20:45:32.265Z,4.00
2022-10-22T20:48:04.685Z,4.60
2022-10-22T20:50:34.597Z,4.20
2022-10-22T20:53:04.193Z,3.83
2022-10-22T20:55:33.793Z,3.58
2022-10-22T20:58:03.361Z,3.70
2022-10-22T21:00:36.016Z,4.10
2022-10-22T21:03:08.377Z,3.78
2022-10-22T21:05:37.971Z,3.78
2022-10-22T21:08:07.738Z,3.85
2022-10-22T21:10:37.309Z,3.70
2022-10-22T21:13:06.921Z,3.55
2022-10-22T21:15:36.519Z,3.88
2022-10-22T21:18:08.815Z,3.42
2022-10-22T21:20:38.519Z,4.25
2022-10-22T21:23:08.076Z,3.60
2022-10-22T21:25:40.845Z,3.63
2022-10-22T21:28:12.896Z,3.80
2022-10-22T21:30:47.773Z,3.75
2022-10-22T21:33:19.961Z,3.80
2022-10-22T21:35:53.985Z,3.75
2022-10-22T21:40:54.036Z,5.18
2022-10-22T21:43:23.603Z,3.70
2022-10-22T21:45:53.182Z,3.65
2022-10-22T21:48:25.323Z,3.80
2022-10-22T21:50:54.902Z,4.00
2022-10-22T21:53:24.479Z,4.00
2022-10-22T21:55:54.089Z,3.88
2022-10-22T21:58:23.673Z,3.70
2022-10-22T22:00:57.805Z,3.67
2022-10-22T22:03:30.334Z,3.60
2022-10-22T22:06:01.374Z,3.88
2022-10-22T22:08:31.429Z,3.90
2022-10-22T22:11:04.760Z,4.00
2022-10-22T22:13:34.499Z,4.28
2022-10-22T22:16:04.537Z,4.13
2022-10-22T22:18:37.452Z,4.20
2022-10-22T22:21:08.534Z,3.83
2022-10-22T22:23:39.841Z,4.03
2022-10-22T22:26:10.142Z,3.95
2022-10-22T22:28:40.583Z,4.70
2022-10-22T22:31:22.099Z,4.32
2022-10-22T22:33:54.365Z,4.03
2022-10-22T22:36:23.939Z,4.20
2022-10-22T22:38:56.808Z,4.43
2022-10-22T22:41:26.688Z,4.43
2022-10-22T22:43:56.276Z,4.10
2022-10-22T22:46:25.925Z,3.97
2022-10-22T22:48:58.207Z,3.88
2022-10-22T22:51:27.983Z,4.00
2022-10-22T22:53:58.094Z,3.90
2022-10-22T22:56:29.758Z,4.32
2022-10-22T22:58:59.958Z,4.43
2022-10-22T23:01:31.347Z,3.70
2022-10-22T23:04:05.883Z,3.80
2022-10-22T23:06:37.818Z,4.20
2022-10-22T23:09:08.190Z,3.85
2022-10-22T23:11:38.067Z,4.00
2022-10-22T23:14:09.360Z,3.90
2022-10-22T23:16:42.435Z,4.05
2022-10-22T23:19:14.866Z,4.20
2022-10-22T23:21:47.757Z,3.90
2022-10-22T23:24:18.704Z,3.90
2022-10-22T23:26:49.898Z,3.65
2022-10-22T23:29:21.172Z,7.97
2022-10-22T23:31:52.571Z,4.95
2022-10-22T23:34:25.952Z,5.40
2022-10-22T23:36:56.851Z,5.05
2022-10-22T23:39:28.311Z,5.65
2022-10-22T23:41:58.342Z,4.88
2022-10-22T23:44:28.368Z,4.97
2022-10-22T23:46:58.050Z,4.53
2022-10-22T23:49:30.281Z,4.40
2022-10-22T23:51:59.904Z,4.50
2022-10-22T23:54:29.465Z,4.10
2022-10-22T23:56:59.053Z,3.90
2022-10-22T23:59:28.594Z,3.95
